LFPM 241630Z AUTO 15007KT CAVOK 03/01 Q1031

Sorties Club
Le Touquet Paris Plage

Remerciements a Kevin et Valentin pour l'organisation de cette sortie et aux instructeurs pour l'encadrement



Le Briefing photo Les Avions au Parking photo Sur le Tarmac du Touquet photo
Sur le Tarmac du Touquet photo Le Groupe photo Au Restaurant photo